sensor_id;sensor_type;location;lat;lon;timestamp;P1;durP1;ratioP1;P2;durP2;ratioP2
30862;SDS011;17573;55.922;37.540;2023-02-24T00:01:36;28.45;;;14.43;;
30862;SDS011;17573;55.922;37.540;2023-02-24T00:06:32;24.55;;;12.07;;
30862;SDS011;17573;55.922;37.540;2023-02-24T00:09:36;25.40;;;13.27;;
30862;SDS011;17573;55.922;37.540;2023-02-24T00:11:56;23.80;;;13.27;;
30862;SDS011;17573;55.922;37.540;2023-02-24T00:14:23;21.27;;;13.02;;
30862;SDS011;17573;55.922;37.540;2023-02-24T00:16:50;29.25;;;14.02;;
30862;SDS011;17573;55.922;37.540;2023-02-24T00:19:19;27.08;;;11.45;;
30862;SDS011;17573;55.922;37.540;2023-02-24T00:21:46;22.48;;;11.57;;
30862;SDS011;17573;55.922;37.540;2023-02-24T00:24:13;24.23;;;13.38;;
30862;SDS011;17573;55.922;37.540;2023-02-24T00:26:39;31.35;;;12.48;;
30862;SDS011;17573;55.922;37.540;2023-02-24T00:29:07;31.90;;;13.13;;
30862;SDS011;17573;55.922;37.540;2023-02-24T00:31:34;21.02;;;12.13;;
30862;SDS011;17573;55.922;37.540;2023-02-24T00:34:04;23.08;;;11.93;;
30862;SDS011;17573;55.922;37.540;2023-02-24T00:36:30;18.23;;;9.20;;
30862;SDS011;17573;55.922;37.540;2023-02-24T00:39:02;25.77;;;12.18;;
30862;SDS011;17573;55.922;37.540;2023-02-24T00:41:34;18.45;;;11.38;;
30862;SDS011;17573;55.922;37.540;2023-02-24T00:44:02;24.85;;;11.82;;
30862;SDS011;17573;55.922;37.540;2023-02-24T00:46:32;23.90;;;11.63;;
30862;SDS011;17573;55.922;37.540;2023-02-24T00:49:00;22.38;;;11.60;;
30862;SDS011;17573;55.922;37.540;2023-02-24T00:51:31;25.67;;;12.32;;
30862;SDS011;17573;55.922;37.540;2023-02-24T00:54:00;22.67;;;13.35;;
30862;SDS011;17573;55.922;37.540;2023-02-24T00:56:28;24.27;;;12.65;;
30862;SDS011;17573;55.922;37.540;2023-02-24T00:58:54;30.27;;;13.18;;
30862;SDS011;17573;55.922;37.540;2023-02-24T01:01:30;29.95;;;12.27;;
30862;SDS011;17573;55.922;37.540;2023-02-24T01:03:59;23.92;;;12.35;;
30862;SDS011;17573;55.922;37.540;2023-02-24T01:06:40;20.30;;;12.55;;
30862;SDS011;17573;55.922;37.540;2023-02-24T01:09:10;24.73;;;12.85;;
30862;SDS011;17573;55.922;37.540;2023-02-24T01:11:38;19.88;;;11.48;;
30862;SDS011;17573;55.922;37.540;2023-02-24T01:14:23;27.73;;;12.57;;
30862;SDS011;17573;55.922;37.540;2023-02-24T01:16:51;26.30;;;12.85;;
30862;SDS011;17573;55.922;37.540;2023-02-24T01:19:21;28.33;;;13.13;;
30862;SDS011;17573;55.922;37.540;2023-02-24T01:21:49;30.40;;;13.95;;
30862;SDS011;17573;55.922;37.540;2023-02-24T01:24:38;29.90;;;13.43;;
30862;SDS011;17573;55.922;37.540;2023-02-24T01:27:05;29.25;;;14.15;;
30862;SDS011;17573;55.922;37.540;2023-02-24T01:29:33;33.22;;;15.48;;
30862;SDS011;17573;55.922;37.540;2023-02-24T01:32:05;36.25;;;16.27;;
30862;SDS011;17573;55.922;37.540;2023-02-24T01:34:31;42.58;;;17.33;;
30862;SDS011;17573;55.922;37.540;2023-02-24T01:36:59;29.50;;;13.30;;
30862;SDS011;17573;55.922;37.540;2023-02-24T01:39:25;35.13;;;15.10;;
30862;SDS011;17573;55.922;37.540;2023-02-24T01:41:51;37.85;;;14.77;;
30862;SDS011;17573;55.922;37.540;2023-02-24T01:46:48;36.63;;;15.23;;
30862;SDS011;17573;55.922;37.540;2023-02-24T01:49:16;36.13;;;14.45;;
30862;SDS011;17573;55.922;37.540;2023-02-24T01:54:34;34.47;;;15.07;;
30862;SDS011;17573;55.922;37.540;2023-02-24T01:57:08;32.17;;;15.43;;
30862;SDS011;17573;55.922;37.540;2023-02-24T01:59:35;36.13;;;16.05;;
30862;SDS011;17573;55.922;37.540;2023-02-24T02:02:02;40.17;;;14.32;;
30862;SDS011;17573;55.922;37.540;2023-02-24T02:07:19;33.97;;;11.30;;
30862;SDS011;17573;55.922;37.540;2023-02-24T02:09:46;22.42;;;12.25;;
30862;SDS011;17573;55.922;37.540;2023-02-24T02:12:12;23.92;;;11.82;;
30862;SDS011;17573;55.922;37.540;2023-02-24T02:14:40;23.95;;;13.95;;
30862;SDS011;17573;55.922;37.540;2023-02-24T02:30:49;18.55;;;11.63;;
30862;SDS011;17573;55.922;37.540;2023-02-24T02:36:13;30.70;;;15.15;;
30862;SDS011;17573;55.922;37.540;2023-02-24T02:41:29;34.35;;;12.95;;
30862;SDS011;17573;55.922;37.540;2023-02-24T02:44:07;28.23;;;13.18;;
30862;SDS011;17573;55.922;37.540;2023-02-24T02:51:48;30.15;;;14.32;;
30862;SDS011;17573;55.922;37.540;2023-02-24T02:56:54;28.80;;;12.07;;
30862;SDS011;17573;55.922;37.540;2023-02-24T02:59:26;25.88;;;13.30;;
30862;SDS011;17573;55.922;37.540;2023-02-24T03:01:54;28.02;;;12.07;;
30862;SDS011;17573;55.922;37.540;2023-02-24T03:04:25;22.05;;;12.45;;
30862;SDS011;17573;55.922;37.540;2023-02-24T03:06:55;37.72;;;12.55;;
30862;SDS011;17573;55.922;37.540;2023-02-24T03:09:26;17.42;;;8.90;;
30862;SDS011;17573;55.922;37.540;2023-02-24T03:11:56;14.73;;;9.77;;
30862;SDS011;17573;55.922;37.540;2023-02-24T03:14:28;20.80;;;11.82;;
30862;SDS011;17573;55.922;37.540;2023-02-24T03:16:55;23.98;;;11.93;;
30862;SDS011;17573;55.922;37.540;2023-02-24T03:19:27;25.45;;;10.45;;
30862;SDS011;17573;55.922;37.540;2023-02-24T03:21:58;22.73;;;10.50;;
30862;SDS011;17573;55.922;37.540;2023-02-24T03:24:38;26.58;;;12.88;;
30862;SDS011;17573;55.922;37.540;2023-02-24T03:30:04;35.75;;;11.57;;
30862;SDS011;17573;55.922;37.540;2023-02-24T03:32:56;19.42;;;9.45;;
30862;SDS011;17573;55.922;37.540;2023-02-24T03:35:26;21.88;;;11.02;;
30862;SDS011;17573;55.922;37.540;2023-02-24T03:37:55;13.80;;;8.90;;
30862;SDS011;17573;55.922;37.540;2023-02-24T03:40:22;18.42;;;10.00;;
30862;SDS011;17573;55.922;37.540;2023-02-24T03:43:05;20.83;;;10.40;;
30862;SDS011;17573;55.922;37.540;2023-02-24T03:45:37;26.40;;;11.70;;
30862;SDS011;17573;55.922;37.540;2023-02-24T03:48:05;21.90;;;10.68;;
30862;SDS011;17573;55.922;37.540;2023-02-24T03:50:32;30.80;;;12.95;;
30862;SDS011;17573;55.922;37.540;2023-02-24T04:00:48;15.40;;;10.63;;
30862;SDS011;17573;55.922;37.540;2023-02-24T04:06:18;21.67;;;11.93;;
30862;SDS011;17573;55.922;37.540;2023-02-24T04:09:18;17.00;;;9.90;;
30862;SDS011;17573;55.922;37.540;2023-02-24T04:12:16;17.83;;;10.63;;
30862;SDS011;17573;55.922;37.540;2023-02-24T04:17:39;24.27;;;10.23;;
30862;SDS011;17573;55.922;37.540;2023-02-24T04:20:15;17.17;;;10.95;;
30862;SDS011;17573;55.922;37.540;2023-02-24T04:22:53;19.42;;;10.68;;
30862;SDS011;17573;55.922;37.540;2023-02-24T04:25:23;29.13;;;10.98;;
30862;SDS011;17573;55.922;37.540;2023-02-24T04:27:57;31.45;;;13.35;;
30862;SDS011;17573;55.922;37.540;2023-02-24T04:30:25;20.48;;;11.57;;
30862;SDS011;17573;55.922;37.540;2023-02-24T04:32:54;28.02;;;12.27;;
30862;SDS011;17573;55.922;37.540;2023-02-24T04:35:22;20.73;;;10.65;;
30862;SDS011;17573;55.922;37.540;2023-02-24T04:37:49;18.95;;;11.18;;
30862;SDS011;17573;55.922;37.540;2023-02-24T04:40:16;24.67;;;13.70;;
30862;SDS011;17573;55.922;37.540;2023-02-24T04:42:43;16.17;;;9.25;;
30862;SDS011;17573;55.922;37.540;2023-02-24T04:47:49;23.65;;;11.07;;
30862;SDS011;17573;55.922;37.540;2023-02-24T04:50:21;27.33;;;11.25;;
30862;SDS011;17573;55.922;37.540;2023-02-24T04:52:53;26.70;;;13.07;;
30862;SDS011;17573;55.922;37.540;2023-02-24T04:55:22;24.05;;;11.75;;
30862;SDS011;17573;55.922;37.540;2023-02-24T04:57:56;24.55;;;11.25;;
30862;SDS011;17573;55.922;37.540;2023-02-24T05:00:25;25.70;;;11.20;;
30862;SDS011;17573;55.922;37.540;2023-02-24T05:02:54;19.73;;;9.90;;
30862;SDS011;17573;55.922;37.540;2023-02-24T05:05:21;17.10;;;10.48;;
30862;SDS011;17573;55.922;37.540;2023-02-24T05:07:54;19.13;;;9.38;;
30862;SDS011;17573;55.922;37.540;2023-02-24T05:10:21;19.77;;;9.60;;
30862;SDS011;17573;55.922;37.540;2023-02-24T05:12:55;14.60;;;9.75;;
30862;SDS011;17573;55.922;37.540;2023-02-24T05:15:26;17.30;;;11.05;;
30862;SDS011;17573;55.922;37.540;2023-02-24T05:17:59;23.80;;;12.60;;
30862;SDS011;17573;55.922;37.540;2023-02-24T05:20:26;27.08;;;11.73;;
30862;SDS011;17573;55.922;37.540;2023-02-24T05:23:11;32.25;;;12.68;;
30862;SDS011;17573;55.922;37.540;2023-02-24T05:25:37;30.60;;;13.02;;
30862;SDS011;17573;55.922;37.540;2023-02-24T05:28:05;20.83;;;11.68;;
30862;SDS011;17573;55.922;37.540;2023-02-24T05:30:31;19.75;;;10.77;;
30862;SDS011;17573;55.922;37.540;2023-02-24T05:32:57;23.52;;;11.85;;
30862;SDS011;17573;55.922;37.540;2023-02-24T05:35:24;18.02;;;11.93;;
30862;SDS011;17573;55.922;37.540;2023-02-24T05:37:50;23.40;;;13.30;;
30862;SDS011;17573;55.922;37.540;2023-02-24T05:40:16;23.25;;;12.55;;
30862;SDS011;17573;55.922;37.540;2023-02-24T05:42:47;22.08;;;9.70;;
30862;SDS011;17573;55.922;37.540;2023-02-24T05:45:14;30.70;;;12.52;;
30862;SDS011;17573;55.922;37.540;2023-02-24T05:47:40;33.55;;;13.57;;
30862;SDS011;17573;55.922;37.540;2023-02-24T05:50:10;23.52;;;12.30;;
30862;SDS011;17573;55.922;37.540;2023-02-24T05:52:36;20.10;;;10.52;;
30862;SDS011;17573;55.922;37.540;2023-02-24T05:55:02;17.42;;;10.10;;
30862;SDS011;17573;55.922;37.540;2023-02-24T05:57:31;20.23;;;11.95;;
30862;SDS011;17573;55.922;37.540;2023-02-24T06:00:00;23.42;;;12.43;;
30862;SDS011;17573;55.922;37.540;2023-02-24T06:02:37;20.35;;;10.27;;
30862;SDS011;17573;55.922;37.540;2023-02-24T06:05:03;23.52;;;11.95;;
30862;SDS011;17573;55.922;37.540;2023-02-24T06:07:33;40.13;;;14.25;;
30862;SDS011;17573;55.922;37.540;2023-02-24T06:09:59;26.45;;;12.75;;
30862;SDS011;17573;55.922;37.540;2023-02-24T06:12:27;15.70;;;8.77;;
30862;SDS011;17573;55.922;37.540;2023-02-24T06:14:58;26.15;;;13.07;;
30862;SDS011;17573;55.922;37.540;2023-02-24T06:17:25;28.70;;;13.18;;
30862;SDS011;17573;55.922;37.540;2023-02-24T06:19:52;22.85;;;12.35;;
30862;SDS011;17573;55.922;37.540;2023-02-24T06:22:19;35.47;;;14.27;;
30862;SDS011;17573;55.922;37.540;2023-02-24T06:24:47;25.08;;;11.07;;
30862;SDS011;17573;55.922;37.540;2023-02-24T06:27:15;37.08;;;14.73;;
30862;SDS011;17573;55.922;37.540;2023-02-24T06:29:43;26.55;;;13.45;;
30862;SDS011;17573;55.922;37.540;2023-02-24T06:32:16;23.67;;;12.65;;
30862;SDS011;17573;55.922;37.540;2023-02-24T06:34:42;27.83;;;12.02;;
30862;SDS011;17573;55.922;37.540;2023-02-24T06:37:10;29.70;;;14.18;;
30862;SDS011;17573;55.922;37.540;2023-02-24T06:39:38;24.23;;;11.68;;
30862;SDS011;17573;55.922;37.540;2023-02-24T06:42:04;24.30;;;13.40;;
30862;SDS011;17573;55.922;37.540;2023-02-24T06:44:34;28.73;;;13.90;;
30862;SDS011;17573;55.922;37.540;2023-02-24T06:47:02;24.27;;;12.07;;
30862;SDS011;17573;55.922;37.540;2023-02-24T06:49:29;35.22;;;15.90;;
30862;SDS011;17573;55.922;37.540;2023-02-24T06:51:55;26.77;;;14.05;;
30862;SDS011;17573;55.922;37.540;2023-02-24T06:54:22;25.40;;;13.52;;
30862;SDS011;17573;55.922;37.540;2023-02-24T06:56:50;50.55;;;13.88;;
30862;SDS011;17573;55.922;37.540;2023-02-24T06:59:16;31.75;;;15.55;;
30862;SDS011;17573;55.922;37.540;2023-02-24T07:01:53;28.80;;;13.18;;
30862;SDS011;17573;55.922;37.540;2023-02-24T07:04:20;26.63;;;12.73;;
30862;SDS011;17573;55.922;37.540;2023-02-24T07:06:50;21.25;;;12.63;;
30862;SDS011;17573;55.922;37.540;2023-02-24T07:09:24;39.92;;;15.05;;
30862;SDS011;17573;55.922;37.540;2023-02-24T07:11:51;32.38;;;14.93;;
30862;SDS011;17573;55.922;37.540;2023-02-24T07:14:19;39.17;;;13.95;;
30862;SDS011;17573;55.922;37.540;2023-02-24T07:16:46;32.10;;;15.65;;
30862;SDS011;17573;55.922;37.540;2023-02-24T07:19:16;24.88;;;11.18;;
30862;SDS011;17573;55.922;37.540;2023-02-24T07:21:44;31.88;;;14.82;;
30862;SDS011;17573;55.922;37.540;2023-02-24T07:24:29;40.88;;;15.02;;
30862;SDS011;17573;55.922;37.540;2023-02-24T07:27:04;30.70;;;15.27;;
30862;SDS011;17573;55.922;37.540;2023-02-24T07:29:31;27.27;;;13.60;;
30862;SDS011;17573;55.922;37.540;2023-02-24T07:32:02;25.75;;;12.57;;
30862;SDS011;17573;55.922;37.540;2023-02-24T07:34:29;30.73;;;15.88;;
30862;SDS011;17573;55.922;37.540;2023-02-24T07:36:55;28.27;;;13.75;;
30862;SDS011;17573;55.922;37.540;2023-02-24T07:39:22;33.60;;;15.40;;
30862;SDS011;17573;55.922;37.540;2023-02-24T07:41:49;22.35;;;12.05;;
30862;SDS011;17573;55.922;37.540;2023-02-24T07:44:16;36.58;;;15.68;;
30862;SDS011;17573;55.922;37.540;2023-02-24T07:46:43;46.58;;;15.85;;
30862;SDS011;17573;55.922;37.540;2023-02-24T07:49:13;31.38;;;13.57;;
30862;SDS011;17573;55.922;37.540;2023-02-24T07:51:39;39.03;;;15.90;;
30862;SDS011;17573;55.922;37.540;2023-02-24T07:54:06;28.33;;;13.23;;
30862;SDS011;17573;55.922;37.540;2023-02-24T07:56:33;20.98;;;13.45;;
30862;SDS011;17573;55.922;37.540;2023-02-24T07:59:00;37.40;;;16.40;;
30862;SDS011;17573;55.922;37.540;2023-02-24T08:01:28;25.20;;;12.25;;
30862;SDS011;17573;55.922;37.540;2023-02-24T08:04:03;31.10;;;16.75;;
30862;SDS011;17573;55.922;37.540;2023-02-24T08:06:33;26.98;;;14.77;;
30862;SDS011;17573;55.922;37.540;2023-02-24T08:09:10;35.60;;;14.90;;
30862;SDS011;17573;55.922;37.540;2023-02-24T08:11:44;37.28;;;15.80;;
30862;SDS011;17573;55.922;37.540;2023-02-24T08:14:12;23.50;;;12.45;;
30862;SDS011;17573;55.922;37.540;2023-02-24T08:16:42;25.73;;;13.95;;
30862;SDS011;17573;55.922;37.540;2023-02-24T08:19:10;35.30;;;17.05;;
30862;SDS011;17573;55.922;37.540;2023-02-24T08:21:38;27.20;;;15.18;;
30862;SDS011;17573;55.922;37.540;2023-02-24T08:24:18;35.63;;;17.70;;
30862;SDS011;17573;55.922;37.540;2023-02-24T08:26:55;48.83;;;15.27;;
30862;SDS011;17573;55.922;37.540;2023-02-24T08:32:07;53.05;;;16.63;;
30862;SDS011;17573;55.922;37.540;2023-02-24T08:34:37;29.92;;;14.25;;
30862;SDS011;17573;55.922;37.540;2023-02-24T08:37:03;33.17;;;16.52;;
30862;SDS011;17573;55.922;37.540;2023-02-24T08:39:29;35.35;;;17.05;;
30862;SDS011;17573;55.922;37.540;2023-02-24T08:41:58;37.90;;;16.17;;
30862;SDS011;17573;55.922;37.540;2023-02-24T08:44:24;31.25;;;15.02;;
30862;SDS011;17573;55.922;37.540;2023-02-24T08:46:54;35.63;;;16.10;;
30862;SDS011;17573;55.922;37.540;2023-02-24T08:49:21;33.30;;;15.90;;
30862;SDS011;17573;55.922;37.540;2023-02-24T08:51:49;37.72;;;17.90;;
30862;SDS011;17573;55.922;37.540;2023-02-24T08:54:19;36.03;;;17.92;;
30862;SDS011;17573;55.922;37.540;2023-02-24T08:56:52;38.13;;;16.85;;
30862;SDS011;17573;55.922;37.540;2023-02-24T08:59:24;32.40;;;16.52;;
30862;SDS011;17573;55.922;37.540;2023-02-24T09:02:04;41.90;;;17.67;;
30862;SDS011;17573;55.922;37.540;2023-02-24T09:05:05;31.23;;;15.88;;
30862;SDS011;17573;55.922;37.540;2023-02-24T09:07:35;30.33;;;15.27;;
30862;SDS011;17573;55.922;37.540;2023-02-24T09:10:13;39.30;;;17.58;;
30862;SDS011;17573;55.922;37.540;2023-02-24T09:12:42;28.70;;;14.88;;
30862;SDS011;17573;55.922;37.540;2023-02-24T09:15:08;27.00;;;15.23;;
30862;SDS011;17573;55.922;37.540;2023-02-24T09:17:36;31.13;;;16.33;;
30862;SDS011;17573;55.922;37.540;2023-02-24T09:20:06;38.58;;;16.73;;
30862;SDS011;17573;55.922;37.540;2023-02-24T09:22:52;43.00;;;17.17;;
30862;SDS011;17573;55.922;37.540;2023-02-24T09:25:25;29.17;;;15.98;;
30862;SDS011;17573;55.922;37.540;2023-02-24T09:30:42;30.80;;;14.60;;
30862;SDS011;17573;55.922;37.540;2023-02-24T09:41:32;43.55;;;15.90;;
30862;SDS011;17573;55.922;37.540;2023-02-24T09:44:21;28.75;;;14.75;;
30862;SDS011;17573;55.922;37.540;2023-02-24T09:49:38;21.98;;;13.57;;
30862;SDS011;17573;55.922;37.540;2023-02-24T09:55:30;34.95;;;15.18;;
30862;SDS011;17573;55.922;37.540;2023-02-24T10:06:48;28.38;;;16.13;;
30862;SDS011;17573;55.922;37.540;2023-02-24T10:11:53;30.05;;;15.52;;
30862;SDS011;17573;55.922;37.540;2023-02-24T10:14:30;30.40;;;15.73;;
30862;SDS011;17573;55.922;37.540;2023-02-24T10:17:16;31.95;;;15.82;;
30862;SDS011;17573;55.922;37.540;2023-02-24T10:19:58;27.33;;;14.57;;
30862;SDS011;17573;55.922;37.540;2023-02-24T10:24:57;42.17;;;16.60;;
30862;SDS011;17573;55.922;37.540;2023-02-24T10:30:05;30.02;;;15.55;;
30862;SDS011;17573;55.922;37.540;2023-02-24T10:32:54;31.20;;;16.23;;
30862;SDS011;17573;55.922;37.540;2023-02-24T10:35:26;31.75;;;16.65;;
30862;SDS011;17573;55.922;37.540;2023-02-24T10:37:58;32.40;;;17.02;;
30862;SDS011;17573;55.922;37.540;2023-02-24T10:40:29;26.48;;;15.82;;
30862;SDS011;17573;55.922;37.540;2023-02-24T10:43:09;29.83;;;15.25;;
30862;SDS011;17573;55.922;37.540;2023-02-24T10:45:42;30.23;;;16.23;;
30862;SDS011;17573;55.922;37.540;2023-02-24T10:48:24;27.33;;;16.27;;
30862;SDS011;17573;55.922;37.540;2023-02-24T10:50:51;30.83;;;15.98;;
30862;SDS011;17573;55.922;37.540;2023-02-24T10:53:32;28.42;;;16.52;;
30862;SDS011;17573;55.922;37.540;2023-02-24T10:56:11;30.17;;;17.85;;
30862;SDS011;17573;55.922;37.540;2023-02-24T10:59:14;31.00;;;17.48;;
30862;SDS011;17573;55.922;37.540;2023-02-24T11:02:01;37.67;;;16.48;;
30862;SDS011;17573;55.922;37.540;2023-02-24T11:04:51;36.42;;;16.85;;
30862;SDS011;17573;55.922;37.540;2023-02-24T11:07:24;37.72;;;18.80;;
30862;SDS011;17573;55.922;37.540;2023-02-24T11:10:14;34.78;;;18.10;;
30862;SDS011;17573;55.922;37.540;2023-02-24T11:12:50;32.93;;;18.03;;
30862;SDS011;17573;55.922;37.540;2023-02-24T11:18:33;33.92;;;18.13;;
30862;SDS011;17573;55.922;37.540;2023-02-24T11:21:02;36.50;;;17.00;;
30862;SDS011;17573;55.922;37.540;2023-02-24T11:23:32;28.30;;;15.77;;
30862;SDS011;17573;55.922;37.540;2023-02-24T11:26:02;26.98;;;14.05;;
30862;SDS011;17573;55.922;37.540;2023-02-24T11:31:21;34.47;;;16.17;;
30862;SDS011;17573;55.922;37.540;2023-02-24T11:41:48;28.80;;;15.07;;
30862;SDS011;17573;55.922;37.540;2023-02-24T11:46:54;33.78;;;18.88;;
30862;SDS011;17573;55.922;37.540;2023-02-24T11:49:29;32.35;;;17.35;;
30862;SDS011;17573;55.922;37.540;2023-02-24T11:51:58;35.85;;;17.67;;
30862;SDS011;17573;55.922;37.540;2023-02-24T11:54:24;34.58;;;16.80;;
30862;SDS011;17573;55.922;37.540;2023-02-24T11:57:02;32.97;;;17.85;;
30862;SDS011;17573;55.922;37.540;2023-02-24T12:10:28;39.30;;;17.60;;
30862;SDS011;17573;55.922;37.540;2023-02-24T12:13:07;35.00;;;17.90;;
30862;SDS011;17573;55.922;37.540;2023-02-24T12:20:47;31.08;;;17.23;;
30862;SDS011;17573;55.922;37.540;2023-02-24T12:33:57;30.48;;;17.67;;
30862;SDS011;17573;55.922;37.540;2023-02-24T12:36:34;32.35;;;16.30;;
30862;SDS011;17573;55.922;37.540;2023-02-24T12:39:14;50.72;;;20.70;;
30862;SDS011;17573;55.922;37.540;2023-02-24T12:41:51;41.80;;;19.90;;
30862;SDS011;17573;55.922;37.540;2023-02-24T12:46:46;29.75;;;17.17;;
30862;SDS011;17573;55.922;37.540;2023-02-24T12:54:40;32.65;;;17.50;;
30862;SDS011;17573;55.922;37.540;2023-02-24T12:59:53;40.55;;;19.55;;
30862;SDS011;17573;55.922;37.540;2023-02-24T13:08:14;46.10;;;19.40;;
30862;SDS011;17573;55.922;37.540;2023-02-24T13:13:54;43.05;;;19.58;;
30862;SDS011;17573;55.922;37.540;2023-02-24T13:16:32;46.03;;;20.40;;
30862;SDS011;17573;55.922;37.540;2023-02-24T13:19:04;46.15;;;19.90;;
30862;SDS011;17573;55.922;37.540;2023-02-24T13:21:31;45.38;;;21.50;;
30862;SDS011;17573;55.922;37.540;2023-02-24T13:23:58;40.03;;;20.90;;
30862;SDS011;17573;55.922;37.540;2023-02-24T13:26:26;54.60;;;19.88;;
30862;SDS011;17573;55.922;37.540;2023-02-24T13:29:01;44.83;;;21.02;;
30862;SDS011;17573;55.922;37.540;2023-02-24T13:31:38;38.83;;;17.15;;
30862;SDS011;17573;55.922;37.540;2023-02-24T13:34:28;45.22;;;21.27;;
30862;SDS011;17573;55.922;37.540;2023-02-24T13:37:08;36.13;;;18.27;;
30862;SDS011;17573;55.922;37.540;2023-02-24T13:39:36;55.67;;;21.33;;
30862;SDS011;17573;55.922;37.540;2023-02-24T13:45:00;41.03;;;18.00;;
30862;SDS011;17573;55.922;37.540;2023-02-24T13:50:18;45.83;;;22.73;;
30862;SDS011;17573;55.922;37.540;2023-02-24T13:52:52;43.50;;;20.45;;
30862;SDS011;17573;55.922;37.540;2023-02-24T14:01:22;39.67;;;20.27;;
30862;SDS011;17573;55.922;37.540;2023-02-24T14:06:55;49.95;;;22.05;;
30862;SDS011;17573;55.922;37.540;2023-02-24T14:09:33;46.38;;;22.38;;
30862;SDS011;17573;55.922;37.540;2023-02-24T14:12:04;40.75;;;18.67;;
30862;SDS011;17573;55.922;37.540;2023-02-24T14:14:37;41.15;;;20.95;;
30862;SDS011;17573;55.922;37.540;2023-02-24T14:17:03;49.83;;;21.33;;
30862;SDS011;17573;55.922;37.540;2023-02-24T14:19:29;40.90;;;19.52;;
30862;SDS011;17573;55.922;37.540;2023-02-24T14:21:55;38.97;;;20.77;;
30862;SDS011;17573;55.922;37.540;2023-02-24T14:24:22;40.65;;;20.95;;
30862;SDS011;17573;55.922;37.540;2023-02-24T14:26:50;46.55;;;20.92;;
30862;SDS011;17573;55.922;37.540;2023-02-24T14:29:21;42.67;;;20.95;;
30862;SDS011;17573;55.922;37.540;2023-02-24T14:31:51;46.03;;;19.85;;
30862;SDS011;17573;55.922;37.540;2023-02-24T14:34:22;39.75;;;20.88;;
30862;SDS011;17573;55.922;37.540;2023-02-24T14:36:50;46.80;;;20.25;;
30862;SDS011;17573;55.922;37.540;2023-02-24T14:39:22;40.42;;;18.90;;
30862;SDS011;17573;55.922;37.540;2023-02-24T14:44:32;48.97;;;23.73;;
30862;SDS011;17573;55.922;37.540;2023-02-24T14:47:01;37.03;;;17.80;;
30862;SDS011;17573;55.922;37.540;2023-02-24T14:49:33;50.72;;;23.35;;
30862;SDS011;17573;55.922;37.540;2023-02-24T14:57:13;34.25;;;18.45;;
30862;SDS011;17573;55.922;37.540;2023-02-24T14:59:43;40.45;;;20.13;;
30862;SDS011;17573;55.922;37.540;2023-02-24T15:02:16;51.00;;;19.27;;
30862;SDS011;17573;55.922;37.540;2023-02-24T15:04:44;43.05;;;22.75;;
30862;SDS011;17573;55.922;37.540;2023-02-24T15:09:48;47.40;;;22.08;;
30862;SDS011;17573;55.922;37.540;2023-02-24T15:14:41;39.42;;;22.58;;
30862;SDS011;17573;55.922;37.540;2023-02-24T15:17:15;50.22;;;23.35;;
30862;SDS011;17573;55.922;37.540;2023-02-24T15:19:42;40.95;;;18.73;;
30862;SDS011;17573;55.922;37.540;2023-02-24T15:24:43;44.55;;;22.67;;
30862;SDS011;17573;55.922;37.540;2023-02-24T15:29:37;48.38;;;24.35;;
30862;SDS011;17573;55.922;37.540;2023-02-24T15:32:04;48.35;;;17.10;;
30862;SDS011;17573;55.922;37.540;2023-02-24T15:34:33;38.78;;;19.35;;
30862;SDS011;17573;55.922;37.540;2023-02-24T15:37:02;40.80;;;20.70;;
30862;SDS011;17573;55.922;37.540;2023-02-24T15:39:41;43.88;;;22.40;;
30862;SDS011;17573;55.922;37.540;2023-02-24T15:42:14;43.92;;;23.35;;
30862;SDS011;17573;55.922;37.540;2023-02-24T15:44:54;36.67;;;20.08;;
30862;SDS011;17573;55.922;37.540;2023-02-24T15:47:25;34.17;;;18.13;;
30862;SDS011;17573;55.922;37.540;2023-02-24T15:49:53;35.22;;;18.67;;
30862;SDS011;17573;55.922;37.540;2023-02-24T15:52:23;50.38;;;23.88;;
30862;SDS011;17573;55.922;37.540;2023-02-24T15:54:51;47.72;;;21.08;;
30862;SDS011;17573;55.922;37.540;2023-02-24T15:57:16;49.72;;;23.35;;
30862;SDS011;17573;55.922;37.540;2023-02-24T15:59:43;42.20;;;19.65;;
30862;SDS011;17573;55.922;37.540;2023-02-24T16:02:13;44.08;;;21.58;;
30862;SDS011;17573;55.922;37.540;2023-02-24T16:04:41;40.72;;;20.95;;
30862;SDS011;17573;55.922;37.540;2023-02-24T16:07:09;46.20;;;21.58;;
30862;SDS011;17573;55.922;37.540;2023-02-24T16:09:40;48.72;;;21.45;;
30862;SDS011;17573;55.922;37.540;2023-02-24T16:12:12;39.22;;;21.52;;
30862;SDS011;17573;55.922;37.540;2023-02-24T16:14:44;45.75;;;22.75;;
30862;SDS011;17573;55.922;37.540;2023-02-24T16:17:53;34.10;;;19.33;;
30862;SDS011;17573;55.922;37.540;2023-02-24T16:20:04;29.83;;;16.08;;
30862;SDS011;17573;55.922;37.540;2023-02-24T16:22:34;62.70;;;23.15;;
30862;SDS011;17573;55.922;37.540;2023-02-24T16:25:00;48.25;;;22.00;;
30862;SDS011;17573;55.922;37.540;2023-02-24T16:27:28;41.05;;;21.05;;
30862;SDS011;17573;55.922;37.540;2023-02-24T16:29:55;47.15;;;21.33;;
30862;SDS011;17573;55.922;37.540;2023-02-24T16:32:21;45.20;;;21.52;;
30862;SDS011;17573;55.922;37.540;2023-02-24T16:34:48;42.65;;;22.63;;
30862;SDS011;17573;55.922;37.540;2023-02-24T16:37:25;46.45;;;23.88;;
30862;SDS011;17573;55.922;37.540;2023-02-24T16:39:52;43.72;;;20.70;;
30862;SDS011;17573;55.922;37.540;2023-02-24T16:42:19;48.67;;;22.13;;
30862;SDS011;17573;55.922;37.540;2023-02-24T16:44:48;46.83;;;23.00;;
30862;SDS011;17573;55.922;37.540;2023-02-24T16:47:15;43.28;;;21.15;;
30862;SDS011;17573;55.922;37.540;2023-02-24T16:49:42;49.67;;;23.67;;
30862;SDS011;17573;55.922;37.540;2023-02-24T16:52:09;44.10;;;23.15;;
30862;SDS011;17573;55.922;37.540;2023-02-24T16:54:36;46.65;;;24.15;;
30862;SDS011;17573;55.922;37.540;2023-02-24T16:57:02;49.45;;;25.58;;
30862;SDS011;17573;55.922;37.540;2023-02-24T16:59:28;48.88;;;24.55;;
30862;SDS011;17573;55.922;37.540;2023-02-24T17:01:54;48.42;;;25.35;;
30862;SDS011;17573;55.922;37.540;2023-02-24T17:04:20;41.55;;;22.02;;
30862;SDS011;17573;55.922;37.540;2023-02-24T17:06:46;43.72;;;23.30;;
30862;SDS011;17573;55.922;37.540;2023-02-24T17:09:12;41.25;;;22.20;;
30862;SDS011;17573;55.922;37.540;2023-02-24T17:11:40;47.20;;;24.65;;
30862;SDS011;17573;55.922;37.540;2023-02-24T17:14:12;45.45;;;24.88;;
30862;SDS011;17573;55.922;37.540;2023-02-24T17:16:41;46.17;;;22.92;;
30862;SDS011;17573;55.922;37.540;2023-02-24T17:19:06;49.60;;;24.88;;
30862;SDS011;17573;55.922;37.540;2023-02-24T17:21:32;48.60;;;23.02;;
30862;SDS011;17573;55.922;37.540;2023-02-24T17:23:58;48.53;;;22.48;;
30862;SDS011;17573;55.922;37.540;2023-02-24T17:26:24;50.47;;;23.52;;
30862;SDS011;17573;55.922;37.540;2023-02-24T17:28:50;48.10;;;25.00;;
30862;SDS011;17573;55.922;37.540;2023-02-24T17:31:15;52.70;;;24.42;;
30862;SDS011;17573;55.922;37.540;2023-02-24T17:33:41;46.15;;;24.10;;
30862;SDS011;17573;55.922;37.540;2023-02-24T17:36:07;46.60;;;22.35;;
30862;SDS011;17573;55.922;37.540;2023-02-24T17:38:33;49.72;;;24.25;;